LPLA METAR and TAF weather

Enter ICAO airport designator
Station Type Date Time Source
LPLA METAR 2019/08/22 09:00 UTC NOAA

LPLA 220900Z /////KT 9999 BKN005 BKN016 22/21 Q1019


Station Type Date Time Source
LPLA Decoded METAR 2019/08/22 09:00 UTC NOAA

Station name not available
Aug 22, 2019 - 05:00 AM EDT / 2019.08.22 0900 UTC
Visibility: greater than 7 mile(s):0
Sky conditions: mostly cloudy
Temperature: 71 F (22 C)
Dew Point: 69 F (21 C)
Relative Humidity: 94%
Pressure (altimeter): 30.09 in. Hg (1019 hPa)
ob: LPLA 220900Z /////KT 9999 BKN005 BKN016 22/21 Q1019
cycle: 9

Station Type Date Time Source
LPLA TAF 2019/08/22 06:18 UTC NOAA

TAF LPLA 220501Z 2206/2306 12010KT 9999 SCT006 BKN016
TEMPO 2206/2223 4000 -DZ BR BKN004 OVC012
BECMG 2222/2224 VRB05KT SCT015

Example: see airport list